Tarko-Sale, Russia
Current Conditions -  °F | °C
As of 5:00 PM on Friday 28 Nov 2014 (Local Time) from USNN Reporting Station
Clear Clear  
Wind Chill: -37°   Ceiling: Unl
Heat Index: -24°   Visibility: 6mi
Dew Point: -31°   Wind: 4mph
Humidity: 69%   Direction: NA
Pressure: 30.56"   Gusts: NA
Location:  64.92°N, 77.79°E
Report Text: USNN 281200Z VRB02MPS CAVOK M31/M35 Q1035 NOSIG RMK QFE77121410260
Loading
Personal Weather Stations






























Interactive Weather Map New forecast layout! Learn more

10-Day Weather Forecast

Advertisements
Track Severe Weather on mobile